sensor_id;sensor_type;location;lat;lon;timestamp;P1;durP1;ratioP1;P2;durP2;ratioP2
52816;SDS011;38687;43.330;21.924;2022-09-09T00:00:15;8.40;;;5.15;;
52816;SDS011;38687;43.330;21.924;2022-09-09T00:03:27;7.03;;;4.70;;
52816;SDS011;38687;43.330;21.924;2022-09-09T00:05:39;7.50;;;5.20;;
52816;SDS011;38687;43.330;21.924;2022-09-09T00:08:07;5.75;;;4.82;;
52816;SDS011;38687;43.330;21.924;2022-09-09T00:10:39;5.60;;;5.10;;
52816;SDS011;38687;43.330;21.924;2022-09-09T00:13:22;5.47;;;4.88;;
52816;SDS011;38687;43.330;21.924;2022-09-09T00:23:33;9.57;;;5.80;;
52816;SDS011;38687;43.330;21.924;2022-09-09T00:28:25;7.95;;;5.45;;
52816;SDS011;38687;43.330;21.924;2022-09-09T00:30:51;6.30;;;5.70;;
52816;SDS011;38687;43.330;21.924;2022-09-09T00:33:19;7.22;;;5.45;;
52816;SDS011;38687;43.330;21.924;2022-09-09T00:35:48;7.35;;;5.35;;
52816;SDS011;38687;43.330;21.924;2022-09-09T00:38:15;7.30;;;5.53;;
52816;SDS011;38687;43.330;21.924;2022-09-09T00:43:28;5.75;;;5.25;;
52816;SDS011;38687;43.330;21.924;2022-09-09T00:48:50;5.55;;;4.88;;
52816;SDS011;38687;43.330;21.924;2022-09-09T00:51:26;8.15;;;5.53;;
52816;SDS011;38687;43.330;21.924;2022-09-09T00:56:39;6.78;;;5.40;;
52816;SDS011;38687;43.330;21.924;2022-09-09T00:59:22;9.65;;;5.63;;
52816;SDS011;38687;43.330;21.924;2022-09-09T01:01:49;5.68;;;5.15;;
52816;SDS011;38687;43.330;21.924;2022-09-09T01:04:20;7.70;;;5.10;;
52816;SDS011;38687;43.330;21.924;2022-09-09T01:06:47;8.40;;;5.32;;
52816;SDS011;38687;43.330;21.924;2022-09-09T01:09:33;6.28;;;4.68;;
52816;SDS011;38687;43.330;21.924;2022-09-09T01:12:16;5.82;;;5.32;;
52816;SDS011;38687;43.330;21.924;2022-09-09T01:14:48;8.30;;;5.97;;
52816;SDS011;38687;43.330;21.924;2022-09-09T01:22:32;5.53;;;4.90;;
52816;SDS011;38687;43.330;21.924;2022-09-09T01:27:19;6.10;;;5.50;;
52816;SDS011;38687;43.330;21.924;2022-09-09T01:29:45;6.18;;;5.57;;
52816;SDS011;38687;43.330;21.924;2022-09-09T01:34:55;6.40;;;5.40;;
52816;SDS011;38687;43.330;21.924;2022-09-09T01:37:20;6.95;;;5.07;;
52816;SDS011;38687;43.330;21.924;2022-09-09T01:39:45;5.25;;;4.75;;
52816;SDS011;38687;43.330;21.924;2022-09-09T01:42:12;5.90;;;5.40;;
52816;SDS011;38687;43.330;21.924;2022-09-09T01:44:38;9.90;;;5.72;;
52816;SDS011;38687;43.330;21.924;2022-09-09T01:47:04;6.45;;;5.07;;
52816;SDS011;38687;43.330;21.924;2022-09-09T01:49:29;7.30;;;5.72;;
52816;SDS011;38687;43.330;21.924;2022-09-09T01:51:55;5.47;;;5.00;;
52816;SDS011;38687;43.330;21.924;2022-09-09T01:54:21;5.90;;;5.30;;
52816;SDS011;38687;43.330;21.924;2022-09-09T01:59:39;5.40;;;4.90;;
52816;SDS011;38687;43.330;21.924;2022-09-09T02:02:11;5.72;;;5.00;;
52816;SDS011;38687;43.330;21.924;2022-09-09T02:07:03;6.97;;;6.20;;
52816;SDS011;38687;43.330;21.924;2022-09-09T02:09:31;5.25;;;4.75;;
52816;SDS011;38687;43.330;21.924;2022-09-09T02:11:58;7.47;;;5.35;;
52816;SDS011;38687;43.330;21.924;2022-09-09T02:14:27;8.73;;;5.80;;
52816;SDS011;38687;43.330;21.924;2022-09-09T02:17:03;7.65;;;5.47;;
52816;SDS011;38687;43.330;21.924;2022-09-09T02:19:32;5.55;;;4.95;;
52816;SDS011;38687;43.330;21.924;2022-09-09T02:22:00;6.28;;;5.47;;
52816;SDS011;38687;43.330;21.924;2022-09-09T02:24:27;7.65;;;5.75;;
52816;SDS011;38687;43.330;21.924;2022-09-09T02:26:53;5.82;;;5.25;;
52816;SDS011;38687;43.330;21.924;2022-09-09T02:29:30;6.32;;;5.45;;
52816;SDS011;38687;43.330;21.924;2022-09-09T02:31:57;7.50;;;5.55;;
52816;SDS011;38687;43.330;21.924;2022-09-09T02:34:24;6.93;;;5.25;;
52816;SDS011;38687;43.330;21.924;2022-09-09T02:36:52;8.02;;;6.05;;
52816;SDS011;38687;43.330;21.924;2022-09-09T02:39:18;7.72;;;5.05;;
52816;SDS011;38687;43.330;21.924;2022-09-09T02:41:44;6.15;;;5.38;;
52816;SDS011;38687;43.330;21.924;2022-09-09T02:44:13;6.45;;;5.22;;
52816;SDS011;38687;43.330;21.924;2022-09-09T02:49:27;5.90;;;5.32;;
52816;SDS011;38687;43.330;21.924;2022-09-09T02:52:07;5.70;;;5.00;;
52816;SDS011;38687;43.330;21.924;2022-09-09T02:54:33;8.65;;;5.40;;
52816;SDS011;38687;43.330;21.924;2022-09-09T02:57:06;6.45;;;5.53;;
52816;SDS011;38687;43.330;21.924;2022-09-09T02:59:32;6.05;;;5.45;;
52816;SDS011;38687;43.330;21.924;2022-09-09T03:01:58;7.78;;;5.97;;
52816;SDS011;38687;43.330;21.924;2022-09-09T03:04:23;6.22;;;5.63;;
52816;SDS011;38687;43.330;21.924;2022-09-09T03:06:50;6.28;;;5.43;;
52816;SDS011;38687;43.330;21.924;2022-09-09T03:09:15;6.00;;;5.32;;
52816;SDS011;38687;43.330;21.924;2022-09-09T03:11:40;6.47;;;5.72;;
52816;SDS011;38687;43.330;21.924;2022-09-09T03:14:05;5.35;;;4.85;;
52816;SDS011;38687;43.330;21.924;2022-09-09T03:16:31;6.70;;;5.57;;
52816;SDS011;38687;43.330;21.924;2022-09-09T03:18:58;6.20;;;5.60;;
52816;SDS011;38687;43.330;21.924;2022-09-09T03:21:23;8.40;;;5.80;;
52816;SDS011;38687;43.330;21.924;2022-09-09T03:23:49;15.45;;;6.05;;
52816;SDS011;38687;43.330;21.924;2022-09-09T03:26:15;5.72;;;5.07;;
52816;SDS011;38687;43.330;21.924;2022-09-09T03:28:41;6.18;;;5.28;;
52816;SDS011;38687;43.330;21.924;2022-09-09T03:31:06;7.57;;;5.70;;
52816;SDS011;38687;43.330;21.924;2022-09-09T03:33:36;6.65;;;5.05;;
52816;SDS011;38687;43.330;21.924;2022-09-09T03:36:02;6.97;;;5.10;;
52816;SDS011;38687;43.330;21.924;2022-09-09T03:38:30;6.22;;;5.40;;
52816;SDS011;38687;43.330;21.924;2022-09-09T03:40:57;7.15;;;5.60;;
52816;SDS011;38687;43.330;21.924;2022-09-09T03:43:23;6.45;;;5.40;;
52816;SDS011;38687;43.330;21.924;2022-09-09T03:45:48;7.07;;;4.85;;
52816;SDS011;38687;43.330;21.924;2022-09-09T03:48:14;6.35;;;5.35;;
52816;SDS011;38687;43.330;21.924;2022-09-09T03:50:47;6.15;;;5.30;;
52816;SDS011;38687;43.330;21.924;2022-09-09T03:53:13;7.03;;;5.93;;
52816;SDS011;38687;43.330;21.924;2022-09-09T03:55:39;8.07;;;5.20;;
52816;SDS011;38687;43.330;21.924;2022-09-09T03:58:07;5.82;;;4.88;;
52816;SDS011;38687;43.330;21.924;2022-09-09T04:00:34;7.90;;;5.80;;
52816;SDS011;38687;43.330;21.924;2022-09-09T04:02:59;5.35;;;4.60;;
52816;SDS011;38687;43.330;21.924;2022-09-09T04:05:25;5.45;;;4.93;;
52816;SDS011;38687;43.330;21.924;2022-09-09T04:07:50;6.05;;;5.50;;
52816;SDS011;38687;43.330;21.924;2022-09-09T04:10:19;6.68;;;5.57;;
52816;SDS011;38687;43.330;21.924;2022-09-09T04:12:46;8.05;;;5.50;;
52816;SDS011;38687;43.330;21.924;2022-09-09T04:15:11;9.48;;;5.20;;
52816;SDS011;38687;43.330;21.924;2022-09-09T04:17:36;6.18;;;5.32;;
52816;SDS011;38687;43.330;21.924;2022-09-09T04:20:02;8.30;;;5.67;;
52816;SDS011;38687;43.330;21.924;2022-09-09T04:22:27;5.72;;;5.22;;
52816;SDS011;38687;43.330;21.924;2022-09-09T04:24:52;5.60;;;5.07;;
52816;SDS011;38687;43.330;21.924;2022-09-09T04:27:17;6.37;;;5.70;;
52816;SDS011;38687;43.330;21.924;2022-09-09T04:29:43;6.30;;;5.50;;
52816;SDS011;38687;43.330;21.924;2022-09-09T04:32:08;8.07;;;5.87;;
52816;SDS011;38687;43.330;21.924;2022-09-09T04:34:33;8.45;;;6.00;;
52816;SDS011;38687;43.330;21.924;2022-09-09T04:36:59;8.93;;;6.22;;
52816;SDS011;38687;43.330;21.924;2022-09-09T04:39:24;9.07;;;6.25;;
52816;SDS011;38687;43.330;21.924;2022-09-09T04:41:49;6.60;;;6.00;;
52816;SDS011;38687;43.330;21.924;2022-09-09T04:44:15;6.20;;;5.63;;
52816;SDS011;38687;43.330;21.924;2022-09-09T04:46:40;6.15;;;5.55;;
52816;SDS011;38687;43.330;21.924;2022-09-09T04:49:06;8.27;;;6.30;;
52816;SDS011;38687;43.330;21.924;2022-09-09T04:51:31;8.15;;;5.85;;
52816;SDS011;38687;43.330;21.924;2022-09-09T04:53:57;10.20;;;5.75;;
52816;SDS011;38687;43.330;21.924;2022-09-09T04:56:22;6.10;;;5.50;;
52816;SDS011;38687;43.330;21.924;2022-09-09T04:58:47;6.28;;;5.68;;
52816;SDS011;38687;43.330;21.924;2022-09-09T05:01:17;7.18;;;5.13;;
52816;SDS011;38687;43.330;21.924;2022-09-09T05:03:42;7.93;;;5.53;;
52816;SDS011;38687;43.330;21.924;2022-09-09T05:06:11;5.55;;;5.05;;
52816;SDS011;38687;43.330;21.924;2022-09-09T05:08:37;7.07;;;5.03;;
52816;SDS011;38687;43.330;21.924;2022-09-09T05:11:03;7.10;;;5.45;;
52816;SDS011;38687;43.330;21.924;2022-09-09T05:13:28;6.72;;;5.32;;
52816;SDS011;38687;43.330;21.924;2022-09-09T05:15:54;6.82;;;5.38;;
52816;SDS011;38687;43.330;21.924;2022-09-09T05:18:19;7.07;;;5.75;;
52816;SDS011;38687;43.330;21.924;2022-09-09T05:20:44;8.27;;;5.90;;
52816;SDS011;38687;43.330;21.924;2022-09-09T05:23:10;7.18;;;6.18;;
52816;SDS011;38687;43.330;21.924;2022-09-09T05:25:38;6.90;;;5.20;;
52816;SDS011;38687;43.330;21.924;2022-09-09T05:28:03;8.27;;;5.50;;
52816;SDS011;38687;43.330;21.924;2022-09-09T05:30:28;6.47;;;5.87;;
52816;SDS011;38687;43.330;21.924;2022-09-09T05:32:57;6.60;;;5.47;;
52816;SDS011;38687;43.330;21.924;2022-09-09T05:35:22;5.95;;;5.38;;
52816;SDS011;38687;43.330;21.924;2022-09-09T05:37:48;6.38;;;5.32;;
52816;SDS011;38687;43.330;21.924;2022-09-09T05:40:13;6.13;;;5.53;;
52816;SDS011;38687;43.330;21.924;2022-09-09T05:42:38;8.13;;;5.30;;
52816;SDS011;38687;43.330;21.924;2022-09-09T05:45:04;7.03;;;5.07;;
52816;SDS011;38687;43.330;21.924;2022-09-09T05:47:30;8.75;;;6.82;;
52816;SDS011;38687;43.330;21.924;2022-09-09T05:49:55;8.10;;;5.97;;
52816;SDS011;38687;43.330;21.924;2022-09-09T05:52:20;10.23;;;5.95;;
52816;SDS011;38687;43.330;21.924;2022-09-09T05:54:46;6.85;;;5.95;;
52816;SDS011;38687;43.330;21.924;2022-09-09T05:57:11;8.60;;;5.50;;
52816;SDS011;38687;43.330;21.924;2022-09-09T05:59:36;6.70;;;5.65;;
52816;SDS011;38687;43.330;21.924;2022-09-09T06:02:03;7.72;;;5.85;;
52816;SDS011;38687;43.330;21.924;2022-09-09T06:04:29;8.40;;;5.93;;
52816;SDS011;38687;43.330;21.924;2022-09-09T06:06:55;9.80;;;5.88;;
52816;SDS011;38687;43.330;21.924;2022-09-09T06:09:20;7.32;;;5.38;;
52816;SDS011;38687;43.330;21.924;2022-09-09T06:11:46;6.68;;;5.65;;
52816;SDS011;38687;43.330;21.924;2022-09-09T06:14:11;11.05;;;7.25;;
52816;SDS011;38687;43.330;21.924;2022-09-09T06:16:36;9.75;;;7.57;;
52816;SDS011;38687;43.330;21.924;2022-09-09T06:19:07;9.30;;;7.20;;
52816;SDS011;38687;43.330;21.924;2022-09-09T06:21:33;12.32;;;6.72;;
52816;SDS011;38687;43.330;21.924;2022-09-09T06:23:59;6.88;;;5.35;;
52816;SDS011;38687;43.330;21.924;2022-09-09T06:26:25;9.90;;;7.40;;
52816;SDS011;38687;43.330;21.924;2022-09-09T06:28:51;11.25;;;8.90;;
52816;SDS011;38687;43.330;21.924;2022-09-09T06:31:18;11.18;;;8.98;;
52816;SDS011;38687;43.330;21.924;2022-09-09T06:33:46;7.22;;;5.38;;
52816;SDS011;38687;43.330;21.924;2022-09-09T06:36:18;6.80;;;5.97;;
52816;SDS011;38687;43.330;21.924;2022-09-09T06:38:43;6.30;;;5.57;;
52816;SDS011;38687;43.330;21.924;2022-09-09T06:41:09;7.78;;;5.88;;
52816;SDS011;38687;43.330;21.924;2022-09-09T06:43:35;8.45;;;5.90;;
52816;SDS011;38687;43.330;21.924;2022-09-09T06:46:02;6.53;;;5.93;;
52816;SDS011;38687;43.330;21.924;2022-09-09T06:48:28;6.55;;;5.63;;
52816;SDS011;38687;43.330;21.924;2022-09-09T06:51:27;6.93;;;6.32;;
52816;SDS011;38687;43.330;21.924;2022-09-09T06:53:46;8.90;;;6.63;;
52816;SDS011;38687;43.330;21.924;2022-09-09T06:58:43;8.75;;;6.28;;
52816;SDS011;38687;43.330;21.924;2022-09-09T07:01:10;9.10;;;5.75;;
52816;SDS011;38687;43.330;21.924;2022-09-09T07:03:37;10.38;;;5.75;;
52816;SDS011;38687;43.330;21.924;2022-09-09T07:06:03;11.90;;;6.68;;
52816;SDS011;38687;43.330;21.924;2022-09-09T07:08:29;7.78;;;5.63;;
52816;SDS011;38687;43.330;21.924;2022-09-09T07:11:03;8.00;;;5.50;;
52816;SDS011;38687;43.330;21.924;2022-09-09T07:13:29;10.10;;;5.80;;
52816;SDS011;38687;43.330;21.924;2022-09-09T07:15:55;6.88;;;5.95;;
52816;SDS011;38687;43.330;21.924;2022-09-09T07:18:20;11.18;;;6.03;;
52816;SDS011;38687;43.330;21.924;2022-09-09T07:20:54;6.18;;;5.57;;
52816;SDS011;38687;43.330;21.924;2022-09-09T07:23:21;8.13;;;6.75;;
52816;SDS011;38687;43.330;21.924;2022-09-09T07:25:46;6.72;;;5.38;;
52816;SDS011;38687;43.330;21.924;2022-09-09T07:28:12;7.50;;;6.05;;
52816;SDS011;38687;43.330;21.924;2022-09-09T07:30:37;7.28;;;6.57;;
52816;SDS011;38687;43.330;21.924;2022-09-09T07:33:03;8.75;;;6.25;;
52816;SDS011;38687;43.330;21.924;2022-09-09T07:35:31;6.83;;;6.23;;
52816;SDS011;38687;43.330;21.924;2022-09-09T07:37:56;8.80;;;6.05;;
52816;SDS011;38687;43.330;21.924;2022-09-09T07:40:23;10.82;;;7.35;;
52816;SDS011;38687;43.330;21.924;2022-09-09T07:42:48;8.07;;;6.78;;
52816;SDS011;38687;43.330;21.924;2022-09-09T07:45:14;8.70;;;7.30;;
52816;SDS011;38687;43.330;21.924;2022-09-09T07:47:39;21.23;;;7.97;;
52816;SDS011;38687;43.330;21.924;2022-09-09T07:50:06;7.85;;;6.40;;
52816;SDS011;38687;43.330;21.924;2022-09-09T07:52:33;7.88;;;6.78;;
52816;SDS011;38687;43.330;21.924;2022-09-09T07:54:58;10.70;;;6.88;;
52816;SDS011;38687;43.330;21.924;2022-09-09T07:57:25;7.28;;;6.57;;
52816;SDS011;38687;43.330;21.924;2022-09-09T07:59:51;8.73;;;6.57;;
52816;SDS011;38687;43.330;21.924;2022-09-09T08:02:17;6.97;;;6.18;;
52816;SDS011;38687;43.330;21.924;2022-09-09T08:04:42;11.40;;;7.10;;
52816;SDS011;38687;43.330;21.924;2022-09-09T08:07:07;7.65;;;6.28;;
52816;SDS011;38687;43.330;21.924;2022-09-09T08:09:33;14.70;;;7.85;;
52816;SDS011;38687;43.330;21.924;2022-09-09T08:11:58;9.35;;;6.30;;
52816;SDS011;38687;43.330;21.924;2022-09-09T08:14:25;8.45;;;5.93;;
52816;SDS011;38687;43.330;21.924;2022-09-09T08:16:51;8.20;;;6.18;;
52816;SDS011;38687;43.330;21.924;2022-09-09T08:19:18;9.27;;;5.97;;
52816;SDS011;38687;43.330;21.924;2022-09-09T08:21:44;11.32;;;5.80;;
52816;SDS011;38687;43.330;21.924;2022-09-09T08:24:10;11.63;;;6.30;;
52816;SDS011;38687;43.330;21.924;2022-09-09T08:26:42;9.20;;;7.15;;
52816;SDS011;38687;43.330;21.924;2022-09-09T08:29:08;11.15;;;6.18;;
52816;SDS011;38687;43.330;21.924;2022-09-09T08:31:34;9.60;;;6.57;;
52816;SDS011;38687;43.330;21.924;2022-09-09T08:34:00;9.05;;;7.45;;
52816;SDS011;38687;43.330;21.924;2022-09-09T08:36:27;7.10;;;6.28;;
52816;SDS011;38687;43.330;21.924;2022-09-09T08:38:55;9.80;;;6.22;;
52816;SDS011;38687;43.330;21.924;2022-09-09T08:44:06;9.10;;;7.00;;
52816;SDS011;38687;43.330;21.924;2022-09-09T08:46:44;10.45;;;7.57;;
52816;SDS011;38687;43.330;21.924;2022-09-09T08:49:25;7.93;;;6.53;;
52816;SDS011;38687;43.330;21.924;2022-09-09T08:51:57;10.20;;;6.78;;
52816;SDS011;38687;43.330;21.924;2022-09-09T08:54:23;9.35;;;7.07;;
52816;SDS011;38687;43.330;21.924;2022-09-09T08:56:48;12.63;;;7.95;;
52816;SDS011;38687;43.330;21.924;2022-09-09T08:59:14;12.57;;;7.65;;
52816;SDS011;38687;43.330;21.924;2022-09-09T09:07:36;14.75;;;8.23;;
52816;SDS011;38687;43.330;21.924;2022-09-09T09:10:15;10.57;;;7.72;;
52816;SDS011;38687;43.330;21.924;2022-09-09T09:12:45;8.50;;;7.38;;
52816;SDS011;38687;43.330;21.924;2022-09-09T09:15:55;11.77;;;8.38;;
52816;SDS011;38687;43.330;21.924;2022-09-09T09:18:01;10.20;;;8.43;;
52816;SDS011;38687;43.330;21.924;2022-09-09T09:20:29;8.52;;;6.90;;
52816;SDS011;38687;43.330;21.924;2022-09-09T09:22:57;13.88;;;6.90;;
52816;SDS011;38687;43.330;21.924;2022-09-09T09:25:31;14.13;;;7.60;;
52816;SDS011;38687;43.330;21.924;2022-09-09T09:30:24;9.52;;;7.43;;
52816;SDS011;38687;43.330;21.924;2022-09-09T09:33:01;10.15;;;6.03;;
52816;SDS011;38687;43.330;21.924;2022-09-09T09:35:28;7.75;;;6.95;;
52816;SDS011;38687;43.330;21.924;2022-09-09T09:37:53;11.30;;;6.45;;
52816;SDS011;38687;43.330;21.924;2022-09-09T09:40:19;7.47;;;6.00;;
52816;SDS011;38687;43.330;21.924;2022-09-09T09:42:52;9.77;;;6.40;;
52816;SDS011;38687;43.330;21.924;2022-09-09T09:45:29;8.15;;;5.93;;
52816;SDS011;38687;43.330;21.924;2022-09-09T09:48:03;8.73;;;6.10;;
52816;SDS011;38687;43.330;21.924;2022-09-09T09:50:29;11.13;;;5.57;;
52816;SDS011;38687;43.330;21.924;2022-09-09T09:52:56;8.38;;;5.68;;
52816;SDS011;38687;43.330;21.924;2022-09-09T09:55:23;11.63;;;7.10;;
52816;SDS011;38687;43.330;21.924;2022-09-09T09:57:49;11.68;;;7.35;;
52816;SDS011;38687;43.330;21.924;2022-09-09T10:00:17;8.98;;;6.72;;
52816;SDS011;38687;43.330;21.924;2022-09-09T10:02:43;8.30;;;6.45;;
52816;SDS011;38687;43.330;21.924;2022-09-09T10:05:17;7.68;;;5.60;;
52816;SDS011;38687;43.330;21.924;2022-09-09T10:07:43;8.55;;;6.57;;
52816;SDS011;38687;43.330;21.924;2022-09-09T10:10:34;10.32;;;7.28;;
52816;SDS011;38687;43.330;21.924;2022-09-09T10:13:05;8.73;;;6.65;;
52816;SDS011;38687;43.330;21.924;2022-09-09T10:23:49;8.82;;;6.68;;
52816;SDS011;38687;43.330;21.924;2022-09-09T10:26:23;7.50;;;6.32;;
52816;SDS011;38687;43.330;21.924;2022-09-09T10:33:49;7.70;;;5.60;;
52816;SDS011;38687;43.330;21.924;2022-09-09T10:36:22;9.10;;;6.28;;
52816;SDS011;38687;43.330;21.924;2022-09-09T10:39:04;9.52;;;6.05;;
52816;SDS011;38687;43.330;21.924;2022-09-09T10:51:40;5.85;;;4.65;;
52816;SDS011;38687;43.330;21.924;2022-09-09T10:54:14;6.20;;;4.68;;
52816;SDS011;38687;43.330;21.924;2022-09-09T10:56:44;6.18;;;4.65;;
52816;SDS011;38687;43.330;21.924;2022-09-09T10:59:20;9.65;;;6.88;;
52816;SDS011;38687;43.330;21.924;2022-09-09T11:01:51;8.05;;;5.07;;
52816;SDS011;38687;43.330;21.924;2022-09-09T11:04:22;8.10;;;5.60;;
52816;SDS011;38687;43.330;21.924;2022-09-09T11:06:50;6.20;;;4.55;;
52816;SDS011;38687;43.330;21.924;2022-09-09T11:09:18;5.88;;;4.40;;
52816;SDS011;38687;43.330;21.924;2022-09-09T11:11:54;6.60;;;4.75;;
52816;SDS011;38687;43.330;21.924;2022-09-09T11:16:58;6.60;;;4.68;;
52816;SDS011;38687;43.330;21.924;2022-09-09T11:19:35;5.65;;;4.25;;
52816;SDS011;38687;43.330;21.924;2022-09-09T11:24:38;5.83;;;3.73;;
52816;SDS011;38687;43.330;21.924;2022-09-09T11:34:39;5.82;;;3.10;;
52816;SDS011;38687;43.330;21.924;2022-09-09T11:44:43;6.45;;;2.85;;
52816;SDS011;38687;43.330;21.924;2022-09-09T11:47:50;4.57;;;3.28;;
52816;SDS011;38687;43.330;21.924;2022-09-09T11:52:41;8.27;;;4.32;;
52816;SDS011;38687;43.330;21.924;2022-09-09T12:02:58;4.97;;;3.72;;
52816;SDS011;38687;43.330;21.924;2022-09-09T12:05:23;8.73;;;4.00;;
52816;SDS011;38687;43.330;21.924;2022-09-09T12:07:59;7.25;;;3.33;;
52816;SDS011;38687;43.330;21.924;2022-09-09T12:10:28;8.20;;;3.20;;
52816;SDS011;38687;43.330;21.924;2022-09-09T12:12:54;3.83;;;3.10;;
52816;SDS011;38687;43.330;21.924;2022-09-09T12:15:21;6.35;;;3.45;;
52816;SDS011;38687;43.330;21.924;2022-09-09T12:17:51;5.95;;;3.65;;
52816;SDS011;38687;43.330;21.924;2022-09-09T12:20:22;5.95;;;3.17;;
52816;SDS011;38687;43.330;21.924;2022-09-09T12:33:12;5.00;;;2.80;;
52816;SDS011;38687;43.330;21.924;2022-09-09T12:35:38;6.15;;;2.80;;
52816;SDS011;38687;43.330;21.924;2022-09-09T12:38:03;6.15;;;3.60;;
52816;SDS011;38687;43.330;21.924;2022-09-09T12:40:33;5.95;;;3.97;;
52816;SDS011;38687;43.330;21.924;2022-09-09T12:43:00;8.48;;;3.30;;
52816;SDS011;38687;43.330;21.924;2022-09-09T12:45:26;5.85;;;3.25;;
52816;SDS011;38687;43.330;21.924;2022-09-09T12:50:25;7.60;;;3.97;;
52816;SDS011;38687;43.330;21.924;2022-09-09T12:52:51;7.55;;;3.97;;
52816;SDS011;38687;43.330;21.924;2022-09-09T12:55:21;8.25;;;4.22;;
52816;SDS011;38687;43.330;21.924;2022-09-09T12:57:50;5.20;;;3.80;;
52816;SDS011;38687;43.330;21.924;2022-09-09T13:00:16;6.43;;;3.92;;
52816;SDS011;38687;43.330;21.924;2022-09-09T13:03:01;6.43;;;4.65;;
52816;SDS011;38687;43.330;21.924;2022-09-09T13:05:38;5.28;;;4.40;;
52816;SDS011;38687;43.330;21.924;2022-09-09T13:08:08;6.03;;;5.00;;
52816;SDS011;38687;43.330;21.924;2022-09-09T13:10:46;7.00;;;5.00;;
52816;SDS011;38687;43.330;21.924;2022-09-09T13:13:15;7.65;;;4.65;;
52816;SDS011;38687;43.330;21.924;2022-09-09T13:15:47;5.07;;;4.57;;
52816;SDS011;38687;43.330;21.924;2022-09-09T13:18:13;5.85;;;5.15;;
52816;SDS011;38687;43.330;21.924;2022-09-09T13:20:39;6.28;;;4.93;;
52816;SDS011;38687;43.330;21.924;2022-09-09T13:23:11;6.95;;;5.20;;
52816;SDS011;38687;43.330;21.924;2022-09-09T13:25:36;13.57;;;8.20;;
52816;SDS011;38687;43.330;21.924;2022-09-09T13:28:04;14.43;;;10.25;;
52816;SDS011;38687;43.330;21.924;2022-09-09T13:33:38;8.60;;;6.30;;
52816;SDS011;38687;43.330;21.924;2022-09-09T13:35:49;5.93;;;5.35;;
52816;SDS011;38687;43.330;21.924;2022-09-09T13:38:15;7.55;;;5.47;;
52816;SDS011;38687;43.330;21.924;2022-09-09T13:40:51;5.70;;;4.35;;
52816;SDS011;38687;43.330;21.924;2022-09-09T13:43:19;4.47;;;4.00;;
52816;SDS011;38687;43.330;21.924;2022-09-09T13:45:52;4.35;;;3.10;;
52816;SDS011;38687;43.330;21.924;2022-09-09T13:48:18;3.15;;;2.88;;
52816;SDS011;38687;43.330;21.924;2022-09-09T13:50:53;5.22;;;3.45;;
52816;SDS011;38687;43.330;21.924;2022-09-09T13:53:18;4.40;;;3.50;;
52816;SDS011;38687;43.330;21.924;2022-09-09T13:55:43;5.72;;;3.72;;
52816;SDS011;38687;43.330;21.924;2022-09-09T13:58:14;4.47;;;3.55;;
52816;SDS011;38687;43.330;21.924;2022-09-09T14:00:40;6.05;;;4.07;;
52816;SDS011;38687;43.330;21.924;2022-09-09T14:03:05;5.47;;;3.70;;
52816;SDS011;38687;43.330;21.924;2022-09-09T14:05:32;7.53;;;4.18;;
52816;SDS011;38687;43.330;21.924;2022-09-09T14:07:58;4.82;;;2.97;;
52816;SDS011;38687;43.330;21.924;2022-09-09T14:10:25;6.53;;;3.38;;
52816;SDS011;38687;43.330;21.924;2022-09-09T14:12:50;5.60;;;3.17;;
52816;SDS011;38687;43.330;21.924;2022-09-09T14:15:16;6.15;;;3.60;;
52816;SDS011;38687;43.330;21.924;2022-09-09T14:17:41;4.03;;;2.88;;
52816;SDS011;38687;43.330;21.924;2022-09-09T14:20:07;3.83;;;3.53;;
52816;SDS011;38687;43.330;21.924;2022-09-09T14:22:34;5.53;;;3.65;;
52816;SDS011;38687;43.330;21.924;2022-09-09T14:25:00;4.47;;;3.22;;
52816;SDS011;38687;43.330;21.924;2022-09-09T14:27:25;8.23;;;3.92;;
52816;SDS011;38687;43.330;21.924;2022-09-09T14:29:51;3.45;;;3.00;;
52816;SDS011;38687;43.330;21.924;2022-09-09T14:32:17;3.78;;;2.97;;
52816;SDS011;38687;43.330;21.924;2022-09-09T14:34:42;3.85;;;2.90;;
52816;SDS011;38687;43.330;21.924;2022-09-09T14:37:07;9.27;;;3.70;;
52816;SDS011;38687;43.330;21.924;2022-09-09T14:39:35;5.20;;;3.03;;
52816;SDS011;38687;43.330;21.924;2022-09-09T14:42:04;4.45;;;3.33;;
52816;SDS011;38687;43.330;21.924;2022-09-09T14:44:30;3.03;;;2.72;;
52816;SDS011;38687;43.330;21.924;2022-09-09T14:46:55;3.97;;;3.22;;
52816;SDS011;38687;43.330;21.924;2022-09-09T14:49:20;7.70;;;3.92;;
52816;SDS011;38687;43.330;21.924;2022-09-09T14:51:46;4.80;;;3.00;;
52816;SDS011;38687;43.330;21.924;2022-09-09T14:54:11;6.33;;;3.70;;
52816;SDS011;38687;43.330;21.924;2022-09-09T14:56:36;5.38;;;3.60;;
52816;SDS011;38687;43.330;21.924;2022-09-09T14:59:02;4.55;;;3.20;;
52816;SDS011;38687;43.330;21.924;2022-09-09T15:01:28;6.18;;;4.43;;
52816;SDS011;38687;43.330;21.924;2022-09-09T15:03:55;13.80;;;8.95;;
52816;SDS011;38687;43.330;21.924;2022-09-09T15:06:21;16.27;;;13.05;;
52816;SDS011;38687;43.330;21.924;2022-09-09T15:08:46;6.05;;;4.15;;
52816;SDS011;38687;43.330;21.924;2022-09-09T15:11:13;6.22;;;3.63;;
52816;SDS011;38687;43.330;21.924;2022-09-09T15:13:39;4.32;;;3.20;;
52816;SDS011;38687;43.330;21.924;2022-09-09T15:16:15;4.70;;;3.33;;
52816;SDS011;38687;43.330;21.924;2022-09-09T15:18:41;6.45;;;3.67;;
52816;SDS011;38687;43.330;21.924;2022-09-09T15:21:14;5.35;;;2.97;;
52816;SDS011;38687;43.330;21.924;2022-09-09T15:23:39;4.30;;;2.83;;
52816;SDS011;38687;43.330;21.924;2022-09-09T15:26:05;4.15;;;3.00;;
52816;SDS011;38687;43.330;21.924;2022-09-09T15:28:34;5.15;;;2.63;;
52816;SDS011;38687;43.330;21.924;2022-09-09T15:33:37;8.20;;;5.37;;
52816;SDS011;38687;43.330;21.924;2022-09-09T15:36:44;4.97;;;4.15;;
52816;SDS011;38687;43.330;21.924;2022-09-09T15:38:51;4.70;;;3.75;;
52816;SDS011;38687;43.330;21.924;2022-09-09T15:41:18;6.80;;;3.17;;
52816;SDS011;38687;43.330;21.924;2022-09-09T15:43:53;6.75;;;3.38;;
52816;SDS011;38687;43.330;21.924;2022-09-09T15:48:49;4.25;;;2.97;;
52816;SDS011;38687;43.330;21.924;2022-09-09T15:51:16;4.00;;;2.72;;
52816;SDS011;38687;43.330;21.924;2022-09-09T15:53:41;4.97;;;3.60;;
52816;SDS011;38687;43.330;21.924;2022-09-09T15:56:06;5.43;;;3.93;;
52816;SDS011;38687;43.330;21.924;2022-09-09T15:58:32;4.80;;;3.15;;
52816;SDS011;38687;43.330;21.924;2022-09-09T16:01:04;5.72;;;3.88;;
52816;SDS011;38687;43.330;21.924;2022-09-09T16:03:39;6.10;;;3.35;;
52816;SDS011;38687;43.330;21.924;2022-09-09T16:06:15;5.57;;;3.30;;
52816;SDS011;38687;43.330;21.924;2022-09-09T16:08:41;4.82;;;2.47;;
52816;SDS011;38687;43.330;21.924;2022-09-09T16:11:17;5.25;;;3.03;;
52816;SDS011;38687;43.330;21.924;2022-09-09T16:13:45;11.93;;;7.80;;
52816;SDS011;38687;43.330;21.924;2022-09-09T16:16:11;6.13;;;5.00;;
52816;SDS011;38687;43.330;21.924;2022-09-09T16:18:38;10.85;;;6.20;;
52816;SDS011;38687;43.330;21.924;2022-09-09T16:21:04;4.57;;;3.78;;
52816;SDS011;38687;43.330;21.924;2022-09-09T16:23:30;4.88;;;3.45;;
52816;SDS011;38687;43.330;21.924;2022-09-09T16:25:56;6.45;;;3.90;;
52816;SDS011;38687;43.330;21.924;2022-09-09T16:28:21;5.53;;;3.42;;
52816;SDS011;38687;43.330;21.924;2022-09-09T16:30:47;4.85;;;3.10;;
52816;SDS011;38687;43.330;21.924;2022-09-09T16:33:12;5.22;;;3.25;;
52816;SDS011;38687;43.330;21.924;2022-09-09T16:35:40;4.05;;;3.10;;
52816;SDS011;38687;43.330;21.924;2022-09-09T16:38:06;5.00;;;3.15;;
52816;SDS011;38687;43.330;21.924;2022-09-09T16:40:33;4.63;;;3.05;;
52816;SDS011;38687;43.330;21.924;2022-09-09T16:42:59;6.50;;;3.42;;